sensor_id;sensor_type;location;lat;lon;timestamp;pressure;altitude;pressure_sealevel;temperature;humidity
74103;BME280;62853;46.166;3.640;2024-01-15T00:00:28;100313.78;;;3.79;100.00
74103;BME280;62853;46.166;3.640;2024-01-15T00:02:53;100310.41;;;3.77;100.00
74103;BME280;62853;46.166;3.640;2024-01-15T00:05:18;100308.63;;;3.78;100.00
74103;BME280;62853;46.166;3.640;2024-01-15T00:07:44;100307.78;;;3.77;100.00
74103;BME280;62853;46.166;3.640;2024-01-15T00:10:09;100306.03;;;3.78;100.00
74103;BME280;62853;46.166;3.640;2024-01-15T00:12:34;100308.72;;;3.76;100.00
74103;BME280;62853;46.166;3.640;2024-01-15T00:15:00;100303.50;;;3.76;100.00
74103;BME280;62853;46.166;3.640;2024-01-15T00:17:25;100287.00;;;3.76;100.00
74103;BME280;62853;46.166;3.640;2024-01-15T00:19:51;100283.56;;;3.75;100.00
74103;BME280;62853;46.166;3.640;2024-01-15T00:22:17;100280.13;;;3.75;100.00
74103;BME280;62853;46.166;3.640;2024-01-15T00:24:42;100273.19;;;3.73;100.00
74103;BME280;62853;46.166;3.640;2024-01-15T00:27:07;100279.25;;;3.74;100.00
74103;BME280;62853;46.166;3.640;2024-01-15T00:29:33;100269.75;;;3.73;100.00
74103;BME280;62853;46.166;3.640;2024-01-15T00:31:58;100278.34;;;3.75;100.00
74103;BME280;62853;46.166;3.640;2024-01-15T00:34:23;100274.03;;;3.74;100.00
74103;BME280;62853;46.166;3.640;2024-01-15T00:36:49;100278.34;;;3.75;100.00
74103;BME280;62853;46.166;3.640;2024-01-15T00:39:14;100268.00;;;3.73;100.00
74103;BME280;62853;46.166;3.640;2024-01-15T00:41:40;100266.28;;;3.72;100.00
74103;BME280;62853;46.166;3.640;2024-01-15T00:44:05;100268.00;;;3.73;100.00
74103;BME280;62853;46.166;3.640;2024-01-15T00:46:30;100245.44;;;3.72;100.00
74103;BME280;62853;46.166;3.640;2024-01-15T00:48:56;100248.03;;;3.72;100.00
74103;BME280;62853;46.166;3.640;2024-01-15T00:51:21;100245.38;;;3.74;100.00
74103;BME280;62853;46.166;3.640;2024-01-15T00:53:46;100252.31;;;3.75;100.00
74103;BME280;62853;46.166;3.640;2024-01-15T00:56:12;100244.56;;;3.73;100.00
74103;BME280;62853;46.166;3.640;2024-01-15T00:58:37;100237.63;;;3.72;100.00
74103;BME280;62853;46.166;3.640;2024-01-15T01:01:03;100237.63;;;3.72;100.00
74103;BME280;62853;46.166;3.640;2024-01-15T01:03:28;100230.69;;;3.73;100.00
74103;BME280;62853;46.166;3.640;2024-01-15T01:05:53;100241.09;;;3.73;100.00
74103;BME280;62853;46.166;3.640;2024-01-15T01:08:20;100245.44;;;3.72;100.00
74103;BME280;62853;46.166;3.640;2024-01-15T01:10:45;100243.72;;;3.73;100.00
74103;BME280;62853;46.166;3.640;2024-01-15T01:13:10;100243.72;;;3.73;100.00
74103;BME280;62853;46.166;3.640;2024-01-15T01:15:36;100240.22;;;3.72;100.00
74103;BME280;62853;46.166;3.640;2024-01-15T01:18:02;100235.94;;;3.71;100.00
74103;BME280;62853;46.166;3.640;2024-01-15T01:20:28;100235.03;;;3.72;100.00
74103;BME280;62853;46.166;3.640;2024-01-15T01:22:53;100228.97;;;3.72;100.00
74103;BME280;62853;46.166;3.640;2024-01-15T01:25:18;100226.38;;;3.72;100.00
74103;BME280;62853;46.166;3.640;2024-01-15T01:27:44;100229.81;;;3.72;100.00
74103;BME280;62853;46.166;3.640;2024-01-15T01:30:09;100222.94;;;3.71;100.00
74103;BME280;62853;46.166;3.640;2024-01-15T01:32:35;100227.25;;;3.71;100.00
74103;BME280;62853;46.166;3.640;2024-01-15T01:35:01;100228.13;;;3.71;100.00
74103;BME280;62853;46.166;3.640;2024-01-15T01:37:26;100219.41;;;3.72;100.00
74103;BME280;62853;46.166;3.640;2024-01-15T01:39:51;100227.22;;;3.72;100.00
74103;BME280;62853;46.166;3.640;2024-01-15T01:42:17;100238.50;;;3.73;100.00
74103;BME280;62853;46.166;3.640;2024-01-15T01:44:42;100238.56;;;3.71;100.00
74103;BME280;62853;46.166;3.640;2024-01-15T01:47:08;100235.94;;;3.71;100.00
74103;BME280;62853;46.166;3.640;2024-01-15T01:49:34;100228.13;;;3.71;100.00
74103;BME280;62853;46.166;3.640;2024-01-15T01:52:02;100234.25;;;3.70;100.00
74103;BME280;62853;46.166;3.640;2024-01-15T01:54:31;100236.78;;;3.72;100.00
74103;BME280;62853;46.166;3.640;2024-01-15T01:56:57;100233.34;;;3.71;100.00
74103;BME280;62853;46.166;3.640;2024-01-15T01:59:25;100232.47;;;3.71;100.00
74103;BME280;62853;46.166;3.640;2024-01-15T02:01:54;100232.41;;;3.72;100.00
74103;BME280;62853;46.166;3.640;2024-01-15T02:04:19;100230.75;;;3.71;100.00
74103;BME280;62853;46.166;3.640;2024-01-15T02:06:45;100222.94;;;3.71;100.00
74103;BME280;62853;46.166;3.640;2024-01-15T02:09:11;100223.75;;;3.72;100.00
74103;BME280;62853;46.166;3.640;2024-01-15T02:11:40;100223.75;;;3.72;100.00
74103;BME280;62853;46.166;3.640;2024-01-15T02:14:06;100225.53;;;3.71;100.00
74103;BME280;62853;46.166;3.640;2024-01-15T02:16:31;100222.94;;;3.71;100.00
74103;BME280;62853;46.166;3.640;2024-01-15T02:18:56;100222.94;;;3.71;100.00
74103;BME280;62853;46.166;3.640;2024-01-15T02:21:22;100224.75;;;3.69;100.00
74103;BME280;62853;46.166;3.640;2024-01-15T02:23:47;100230.84;;;3.68;100.00
74103;BME280;62853;46.166;3.640;2024-01-15T02:26:12;100228.25;;;3.68;100.00
74103;BME280;62853;46.166;3.640;2024-01-15T02:28:38;100228.28;;;3.67;100.00
74103;BME280;62853;46.166;3.640;2024-01-15T02:31:04;100223.09;;;3.67;100.00
74103;BME280;62853;46.166;3.640;2024-01-15T02:33:29;100224.91;;;3.65;100.00
74103;BME280;62853;46.166;3.640;2024-01-15T02:35:55;100224.13;;;3.63;100.00
74103;BME280;62853;46.166;3.640;2024-01-15T02:38:20;100221.47;;;3.64;100.00
74103;BME280;62853;46.166;3.640;2024-01-15T02:40:45;100218.03;;;3.62;100.00
74103;BME280;62853;46.166;3.640;2024-01-15T02:43:11;100215.44;;;3.62;100.00
74103;BME280;62853;46.166;3.640;2024-01-15T02:45:37;100218.03;;;3.62;100.00
74103;BME280;62853;46.166;3.640;2024-01-15T02:48:02;100220.69;;;3.61;100.00
74103;BME280;62853;46.166;3.640;2024-01-15T02:50:28;100214.66;;;3.60;100.00
74103;BME280;62853;46.166;3.640;2024-01-15T02:52:53;100206.84;;;3.60;100.00
74103;BME280;62853;46.166;3.640;2024-01-15T02:55:19;100206.84;;;3.60;100.00
74103;BME280;62853;46.166;3.640;2024-01-15T02:57:44;100221.66;;;3.58;100.00
74103;BME280;62853;46.166;3.640;2024-01-15T03:00:10;100212.16;;;3.57;100.00
74103;BME280;62853;46.166;3.640;2024-01-15T03:02:37;100222.56;;;3.57;100.00
74103;BME280;62853;46.166;3.640;2024-01-15T03:05:06;100211.41;;;3.53;100.00
74103;BME280;62853;46.166;3.640;2024-01-15T03:07:31;100221.81;;;3.53;100.00
74103;BME280;62853;46.166;3.640;2024-01-15T03:09:57;100209.72;;;3.52;100.00
74103;BME280;62853;46.166;3.640;2024-01-15T03:12:22;100216.66;;;3.52;100.00
74103;BME280;62853;46.166;3.640;2024-01-15T03:14:47;100220.13;;;3.52;100.00
74103;BME280;62853;46.166;3.640;2024-01-15T03:17:13;100219.28;;;3.52;100.00
74103;BME280;62853;46.166;3.640;2024-01-15T03:19:38;100227.13;;;3.50;100.00
74103;BME280;62853;46.166;3.640;2024-01-15T03:22:03;100221.97;;;3.49;100.00
74103;BME280;62853;46.166;3.640;2024-01-15T03:24:29;100228.91;;;3.50;100.00
74103;BME280;62853;46.166;3.640;2024-01-15T03:26:55;100236.72;;;3.50;100.00
74103;BME280;62853;46.166;3.640;2024-01-15T03:29:20;100232.34;;;3.50;100.00
74103;BME280;62853;46.166;3.640;2024-01-15T03:31:46;100226.28;;;3.50;100.00
74103;BME280;62853;46.166;3.640;2024-01-15T03:34:11;100223.69;;;3.50;100.00
74103;BME280;62853;46.166;3.640;2024-01-15T03:36:36;100217.66;;;3.49;100.00
74103;BME280;62853;46.166;3.640;2024-01-15T03:39:02;100203.75;;;3.49;100.00
74103;BME280;62853;46.166;3.640;2024-01-15T03:41:27;100213.31;;;3.48;100.00
74103;BME280;62853;46.166;3.640;2024-01-15T03:43:53;100210.72;;;3.48;100.00
74103;BME280;62853;46.166;3.640;2024-01-15T03:46:18;100212.44;;;3.49;100.00
74103;BME280;62853;46.166;3.640;2024-01-15T03:48:43;100201.16;;;3.49;100.00
74103;BME280;62853;46.166;3.640;2024-01-15T03:51:09;100200.25;;;3.50;100.00
74103;BME280;62853;46.166;3.640;2024-01-15T03:53:34;100202.03;;;3.49;100.00
74103;BME280;62853;46.166;3.640;2024-01-15T03:55:59;100202.88;;;3.50;100.00
74103;BME280;62853;46.166;3.640;2024-01-15T03:58:25;100199.38;;;3.51;100.00
74103;BME280;62853;46.166;3.640;2024-01-15T04:00:50;100181.97;;;3.51;100.00
74103;BME280;62853;46.166;3.640;2024-01-15T04:03:16;100190.69;;;3.50;100.00
74103;BME280;62853;46.166;3.640;2024-01-15T04:05:41;100192.41;;;3.51;100.00
74103;BME280;62853;46.166;3.640;2024-01-15T04:08:06;100192.41;;;3.51;100.00
74103;BME280;62853;46.166;3.640;2024-01-15T04:10:32;100195.84;;;3.52;100.00
74103;BME280;62853;46.166;3.640;2024-01-15T04:12:57;100181.09;;;3.52;100.00
74103;BME280;62853;46.166;3.640;2024-01-15T04:15:24;100193.19;;;3.53;100.00
74103;BME280;62853;46.166;3.640;2024-01-15T04:17:50;100180.22;;;3.52;100.00
74103;BME280;62853;46.166;3.640;2024-01-15T04:20:15;100198.38;;;3.53;100.00
74103;BME280;62853;46.166;3.640;2024-01-15T04:22:40;100190.56;;;3.53;100.00
74103;BME280;62853;46.166;3.640;2024-01-15T04:25:06;100193.97;;;3.56;100.00
74103;BME280;62853;46.166;3.640;2024-01-15T04:27:31;100187.91;;;3.55;100.00
74103;BME280;62853;46.166;3.640;2024-01-15T04:29:57;100182.78;;;3.53;100.00
74103;BME280;62853;46.166;3.640;2024-01-15T04:32:22;100177.50;;;3.55;100.00
74103;BME280;62853;46.166;3.640;2024-01-15T04:34:47;100166.31;;;3.53;100.00
74103;BME280;62853;46.166;3.640;2024-01-15T04:37:13;100159.38;;;3.52;100.00
74103;BME280;62853;46.166;3.640;2024-01-15T04:39:39;100162.00;;;3.52;100.00
74103;BME280;62853;46.166;3.640;2024-01-15T04:42:04;100165.47;;;3.52;100.00
74103;BME280;62853;46.166;3.640;2024-01-15T04:44:29;100165.47;;;3.52;100.00
74103;BME280;62853;46.166;3.640;2024-01-15T04:46:55;100163.75;;;3.51;100.00
74103;BME280;62853;46.166;3.640;2024-01-15T04:49:20;100172.41;;;3.52;100.00
74103;BME280;62853;46.166;3.640;2024-01-15T04:51:46;100169.81;;;3.52;100.00
74103;BME280;62853;46.166;3.640;2024-01-15T04:54:11;100169.81;;;3.52;100.00
74103;BME280;62853;46.166;3.640;2024-01-15T04:56:37;100168.06;;;3.52;100.00
74103;BME280;62853;46.166;3.640;2024-01-15T04:59:02;100168.06;;;3.52;100.00
74103;BME280;62853;46.166;3.640;2024-01-15T05:01:31;100172.34;;;3.53;100.00
74103;BME280;62853;46.166;3.640;2024-01-15T05:03:57;100163.69;;;3.53;100.00
74103;BME280;62853;46.166;3.640;2024-01-15T05:06:23;100164.50;;;3.55;100.00
74103;BME280;62853;46.166;3.640;2024-01-15T05:08:48;100158.44;;;3.54;100.00
74103;BME280;62853;46.166;3.640;2024-01-15T05:11:13;100164.50;;;3.55;100.00
74103;BME280;62853;46.166;3.640;2024-01-15T05:13:39;100163.59;;;3.56;100.00
74103;BME280;62853;46.166;3.640;2024-01-15T05:16:04;100159.28;;;3.55;100.00
74103;BME280;62853;46.166;3.640;2024-01-15T05:18:29;100148.88;;;3.55;100.00
74103;BME280;62853;46.166;3.640;2024-01-15T05:20:55;100157.50;;;3.56;100.00
74103;BME280;62853;46.166;3.640;2024-01-15T05:23:20;100148.81;;;3.57;100.00
74103;BME280;62853;46.166;3.640;2024-01-15T05:25:45;100147.06;;;3.57;100.00
74103;BME280;62853;46.166;3.640;2024-01-15T05:28:11;100149.59;;;3.59;100.00
74103;BME280;62853;46.166;3.640;2024-01-15T05:30:36;100147.00;;;3.59;100.00
74103;BME280;62853;46.166;3.640;2024-01-15T05:33:02;100148.72;;;3.60;100.00
74103;BME280;62853;46.166;3.640;2024-01-15T05:35:28;100141.72;;;3.60;100.00
74103;BME280;62853;46.166;3.640;2024-01-15T05:37:53;100149.53;;;3.60;100.00
74103;BME280;62853;46.166;3.640;2024-01-15T05:40:19;100141.72;;;3.60;100.00
74103;BME280;62853;46.166;3.640;2024-01-15T05:42:44;100135.69;;;3.60;100.00
74103;BME280;62853;46.166;3.640;2024-01-15T05:45:09;100133.09;;;3.60;100.00
74103;BME280;62853;46.166;3.640;2024-01-15T05:47:35;100131.31;;;3.60;100.00
74103;BME280;62853;46.166;3.640;2024-01-15T05:50:01;100133.03;;;3.61;100.00
74103;BME280;62853;46.166;3.640;2024-01-15T05:52:27;100132.22;;;3.59;100.00
74103;BME280;62853;46.166;3.640;2024-01-15T05:54:52;100131.25;;;3.62;100.00
74103;BME280;62853;46.166;3.640;2024-01-15T05:57:18;100126.06;;;3.62;100.00
74103;BME280;62853;46.166;3.640;2024-01-15T05:59:44;100126.06;;;3.62;100.00
74103;BME280;62853;46.166;3.640;2024-01-15T06:02:10;100126.94;;;3.61;100.00
74103;BME280;62853;46.166;3.640;2024-01-15T06:04:36;100121.69;;;3.62;100.00
74103;BME280;62853;46.166;3.640;2024-01-15T06:07:01;100108.78;;;3.59;100.00
74103;BME280;62853;46.166;3.640;2024-01-15T06:09:26;100110.50;;;3.60;100.00
74103;BME280;62853;46.166;3.640;2024-01-15T06:11:53;100110.50;;;3.60;100.00
74103;BME280;62853;46.166;3.640;2024-01-15T06:14:18;100116.53;;;3.61;100.00
74103;BME280;62853;46.166;3.640;2024-01-15T06:16:43;100116.53;;;3.61;100.00
74103;BME280;62853;46.166;3.640;2024-01-15T06:19:08;100112.19;;;3.61;100.00
74103;BME280;62853;46.166;3.640;2024-01-15T06:21:34;100111.31;;;3.61;100.00
74103;BME280;62853;46.166;3.640;2024-01-15T06:23:59;100107.03;;;3.60;100.00
74103;BME280;62853;46.166;3.640;2024-01-15T06:26:25;100108.72;;;3.61;100.00
74103;BME280;62853;46.166;3.640;2024-01-15T06:28:50;100114.84;;;3.60;100.00
74103;BME280;62853;46.166;3.640;2024-01-15T06:31:16;100121.75;;;3.61;100.00
74103;BME280;62853;46.166;3.640;2024-01-15T06:33:41;100112.25;;;3.60;100.00
74103;BME280;62853;46.166;3.640;2024-01-15T06:36:07;100107.00;;;3.61;100.00
74103;BME280;62853;46.166;3.640;2024-01-15T06:38:32;100111.31;;;3.61;100.00
74103;BME280;62853;46.166;3.640;2024-01-15T06:40:58;100110.44;;;3.62;100.00
74103;BME280;62853;46.166;3.640;2024-01-15T06:43:23;100111.28;;;3.62;100.00
74103;BME280;62853;46.166;3.640;2024-01-15T06:45:48;100108.72;;;3.61;100.00
74103;BME280;62853;46.166;3.640;2024-01-15T06:48:14;100100.91;;;3.61;100.00
74103;BME280;62853;46.166;3.640;2024-01-15T06:50:44;100102.69;;;3.60;100.00
74103;BME280;62853;46.166;3.640;2024-01-15T06:53:09;100105.28;;;3.60;100.00
74103;BME280;62853;46.166;3.640;2024-01-15T06:55:35;100107.03;;;3.60;100.00
74103;BME280;62853;46.166;3.640;2024-01-15T06:58:00;100105.28;;;3.60;100.00
74103;BME280;62853;46.166;3.640;2024-01-15T07:00:26;100100.91;;;3.61;100.00
74103;BME280;62853;46.166;3.640;2024-01-15T07:02:52;100105.28;;;3.60;100.00
74103;BME280;62853;46.166;3.640;2024-01-15T07:05:18;100098.34;;;3.59;100.00
74103;BME280;62853;46.166;3.640;2024-01-15T07:07:43;100098.34;;;3.59;100.00
74103;BME280;62853;46.166;3.640;2024-01-15T07:10:08;100094.91;;;3.59;100.00
74103;BME280;62853;46.166;3.640;2024-01-15T07:12:34;100101.06;;;3.58;100.00
74103;BME280;62853;46.166;3.640;2024-01-15T07:14:59;100102.78;;;3.57;100.00
74103;BME280;62853;46.166;3.640;2024-01-15T07:17:25;100101.94;;;3.57;100.00
74103;BME280;62853;46.166;3.640;2024-01-15T07:19:50;100103.72;;;3.56;100.00
74103;BME280;62853;46.166;3.640;2024-01-15T07:22:15;100110.59;;;3.57;100.00
74103;BME280;62853;46.166;3.640;2024-01-15T07:24:43;100103.72;;;3.56;100.00
74103;BME280;62853;46.166;3.640;2024-01-15T07:27:08;100108.91;;;3.56;100.00
74103;BME280;62853;46.166;3.640;2024-01-15T07:29:34;100113.25;;;3.56;100.00
74103;BME280;62853;46.166;3.640;2024-01-15T07:32:02;100114.13;;;3.56;100.00
74103;BME280;62853;46.166;3.640;2024-01-15T07:34:28;100115.81;;;3.57;100.00
74103;BME280;62853;46.166;3.640;2024-01-15T07:36:54;100112.38;;;3.57;100.00
74103;BME280;62853;46.166;3.640;2024-01-15T07:39:19;100100.19;;;3.57;100.00
74103;BME280;62853;46.166;3.640;2024-01-15T07:41:44;100111.47;;;3.58;100.00
74103;BME280;62853;46.166;3.640;2024-01-15T07:44:10;100107.09;;;3.58;100.00
74103;BME280;62853;46.166;3.640;2024-01-15T07:46:35;100115.81;;;3.57;100.00
74103;BME280;62853;46.166;3.640;2024-01-15T07:49:00;100117.56;;;3.57;100.00
74103;BME280;62853;46.166;3.640;2024-01-15T07:51:26;100121.94;;;3.56;100.00
74103;BME280;62853;46.166;3.640;2024-01-15T07:53:53;100134.97;;;3.56;100.00
74103;BME280;62853;46.166;3.640;2024-01-15T07:56:19;100124.53;;;3.56;100.00
74103;BME280;62853;46.166;3.640;2024-01-15T07:58:44;100128.88;;;3.56;100.00
74103;BME280;62853;46.166;3.640;2024-01-15T08:01:10;100124.59;;;3.54;100.00
74103;BME280;62853;46.166;3.640;2024-01-15T08:03:35;100130.63;;;3.55;100.00
74103;BME280;62853;46.166;3.640;2024-01-15T08:06:01;100125.44;;;3.55;100.00
74103;BME280;62853;46.166;3.640;2024-01-15T08:08:26;100136.69;;;3.56;100.00
74103;BME280;62853;46.166;3.640;2024-01-15T08:10:52;100141.09;;;3.53;100.00
74103;BME280;62853;46.166;3.640;2024-01-15T08:13:18;100141.06;;;3.55;100.00
74103;BME280;62853;46.166;3.640;2024-01-15T08:15:43;100148.88;;;3.55;100.00
74103;BME280;62853;46.166;3.640;2024-01-15T08:18:09;100144.50;;;3.56;100.00
74103;BME280;62853;46.166;3.640;2024-01-15T08:20:34;100139.34;;;3.54;100.00
74103;BME280;62853;46.166;3.640;2024-01-15T08:23:00;100145.38;;;3.56;100.00
74103;BME280;62853;46.166;3.640;2024-01-15T08:25:25;100133.25;;;3.55;100.00
74103;BME280;62853;46.166;3.640;2024-01-15T08:27:51;100137.56;;;3.56;100.00
74103;BME280;62853;46.166;3.640;2024-01-15T08:30:17;100140.16;;;3.56;100.00
74103;BME280;62853;46.166;3.640;2024-01-15T08:32:44;100144.50;;;3.56;100.00
74103;BME280;62853;46.166;3.640;2024-01-15T08:35:09;100145.38;;;3.56;100.00
74103;BME280;62853;46.166;3.640;2024-01-15T08:37:35;100146.25;;;3.55;100.00
74103;BME280;62853;46.166;3.640;2024-01-15T08:40:00;100154.91;;;3.56;100.00
74103;BME280;62853;46.166;3.640;2024-01-15T08:42:25;100161.84;;;3.57;100.00
74103;BME280;62853;46.166;3.640;2024-01-15T08:44:51;100152.25;;;3.57;100.00
74103;BME280;62853;46.166;3.640;2024-01-15T08:47:16;100161.84;;;3.57;100.00
74103;BME280;62853;46.166;3.640;2024-01-15T08:49:42;100157.50;;;3.56;100.00
74103;BME280;62853;46.166;3.640;2024-01-15T08:52:09;100163.59;;;3.56;100.00
74103;BME280;62853;46.166;3.640;2024-01-15T08:54:35;100160.13;;;3.56;100.00
74103;BME280;62853;46.166;3.640;2024-01-15T08:57:00;100156.72;;;3.53;100.00
74103;BME280;62853;46.166;3.640;2024-01-15T08:59:26;100142.03;;;3.52;100.00
74103;BME280;62853;46.166;3.640;2024-01-15T09:01:53;100150.69;;;3.53;100.00
74103;BME280;62853;46.166;3.640;2024-01-15T09:04:19;100153.34;;;3.51;100.00
74103;BME280;62853;46.166;3.640;2024-01-15T09:06:47;100154.19;;;3.52;100.00
74103;BME280;62853;46.166;3.640;2024-01-15T09:09:13;100165.47;;;3.52;100.00
74103;BME280;62853;46.166;3.640;2024-01-15T09:11:40;100173.28;;;3.52;100.00
74103;BME280;62853;46.166;3.640;2024-01-15T09:14:05;100174.16;;;3.51;100.00
74103;BME280;62853;46.166;3.640;2024-01-15T09:16:31;100162.91;;;3.51;100.00
74103;BME280;62853;46.166;3.640;2024-01-15T09:18:56;100168.97;;;3.51;100.00
74103;BME280;62853;46.166;3.640;2024-01-15T09:21:23;100176.78;;;3.51;100.00
74103;BME280;62853;46.166;3.640;2024-01-15T09:23:50;100177.63;;;3.52;100.00
74103;BME280;62853;46.166;3.640;2024-01-15T09:26:15;100181.13;;;3.51;100.00
74103;BME280;62853;46.166;3.640;2024-01-15T09:28:41;100189.78;;;3.51;100.00
74103;BME280;62853;46.166;3.640;2024-01-15T09:31:07;100186.28;;;3.52;100.00
74103;BME280;62853;46.166;3.640;2024-01-15T09:33:32;100181.09;;;3.52;100.00
74103;BME280;62853;46.166;3.640;2024-01-15T09:36:02;100176.78;;;3.51;100.00
74103;BME280;62853;46.166;3.640;2024-01-15T09:38:29;100178.47;;;3.52;100.00
74103;BME280;62853;46.166;3.640;2024-01-15T09:40:55;100175.00;;;3.52;100.00
74103;BME280;62853;46.166;3.640;2024-01-15T09:43:21;100181.13;;;3.51;100.00
74103;BME280;62853;46.166;3.640;2024-01-15T09:45:47;100170.72;;;3.51;100.00
74103;BME280;62853;46.166;3.640;2024-01-15T09:48:14;100166.38;;;3.51;100.00
74103;BME280;62853;46.166;3.640;2024-01-15T09:50:39;100174.13;;;3.53;100.00
74103;BME280;62853;46.166;3.640;2024-01-15T09:53:05;100161.94;;;3.53;100.00
74103;BME280;62853;46.166;3.640;2024-01-15T09:55:31;100171.34;;;3.58;100.00
74103;BME280;62853;46.166;3.640;2024-01-15T09:57:59;100174.69;;;3.61;100.00
74103;BME280;62853;46.166;3.640;2024-01-15T10:00:26;100178.03;;;3.65;100.00
74103;BME280;62853;46.166;3.640;2024-01-15T10:02:52;100176.16;;;3.68;100.00
74103;BME280;62853;46.166;3.640;2024-01-15T10:05:17;100176.03;;;3.71;100.00
74103;BME280;62853;46.166;3.640;2024-01-15T10:07:43;100177.78;;;3.71;100.00
74103;BME280;62853;46.166;3.640;2024-01-15T10:10:11;100177.78;;;3.71;100.00
74103;BME280;62853;46.166;3.640;2024-01-15T10:12:37;100172.56;;;3.71;100.00
74103;BME280;62853;46.166;3.640;2024-01-15T10:15:04;100181.31;;;3.70;100.00
74103;BME280;62853;46.166;3.640;2024-01-15T10:17:30;100183.81;;;3.73;100.00
74103;BME280;62853;46.166;3.640;2024-01-15T10:19:57;100172.88;;;3.87;100.00
74103;BME280;62853;46.166;3.640;2024-01-15T10:22:22;100175.09;;;3.96;100.00
74103;BME280;62853;46.166;3.640;2024-01-15T10:24:48;100181.81;;;4.03;100.00
74103;BME280;62853;46.166;3.640;2024-01-15T10:27:14;100175.66;;;4.04;100.00
74103;BME280;62853;46.166;3.640;2024-01-15T10:29:41;100178.25;;;4.04;100.00
74103;BME280;62853;46.166;3.640;2024-01-15T10:32:07;100168.78;;;4.03;100.00
74103;BME280;62853;46.166;3.640;2024-01-15T10:34:37;100164.47;;;4.02;100.00
74103;BME280;62853;46.166;3.640;2024-01-15T10:37:03;100166.94;;;4.05;100.00
74103;BME280;62853;46.166;3.640;2024-01-15T10:39:29;100162.56;;;4.06;100.00
74103;BME280;62853;46.166;3.640;2024-01-15T10:41:55;100164.22;;;4.08;100.00
74103;BME280;62853;46.166;3.640;2024-01-15T10:44:20;100170.16;;;4.12;100.00
74103;BME280;62853;46.166;3.640;2024-01-15T10:46:46;100170.00;;;4.17;100.00
74103;BME280;62853;46.166;3.640;2024-01-15T10:49:12;100167.91;;;4.25;100.00
74103;BME280;62853;46.166;3.640;2024-01-15T10:51:38;100168.66;;;4.28;100.00
74103;BME280;62853;46.166;3.640;2024-01-15T10:54:04;100169.50;;;4.29;100.00
74103;BME280;62853;46.166;3.640;2024-01-15T10:56:31;100174.53;;;4.34;100.00
74103;BME280;62853;46.166;3.640;2024-01-15T10:58:59;100181.44;;;4.35;100.00
74103;BME280;62853;46.166;3.640;2024-01-15T11:01:24;100166.78;;;4.32;100.00
74103;BME280;62853;46.166;3.640;2024-01-15T11:03:50;100168.47;;;4.33;100.00
74103;BME280;62853;46.166;3.640;2024-01-15T11:06:16;100163.31;;;4.32;100.00
74103;BME280;62853;46.166;3.640;2024-01-15T11:08:46;100166.00;;;4.30;100.00
74103;BME280;62853;46.166;3.640;2024-01-15T11:11:13;100165.06;;;4.31;100.00
74103;BME280;62853;46.166;3.640;2024-01-15T11:16:06;100172.09;;;4.29;100.00
74103;BME280;62853;46.166;3.640;2024-01-15T11:18:36;100172.94;;;4.29;100.00
74103;BME280;62853;46.166;3.640;2024-01-15T11:23:45;100176.66;;;4.46;100.00
74103;BME280;62853;46.166;3.640;2024-01-15T11:29:05;100187.00;;;4.70;100.00
74103;BME280;62853;46.166;3.640;2024-01-15T11:34:06;100195.03;;;4.85;100.00
74103;BME280;62853;46.166;3.640;2024-01-15T11:42:03;100197.84;;;4.81;100.00
74103;BME280;62853;46.166;3.640;2024-01-15T11:44:29;100208.41;;;4.78;100.00
74103;BME280;62853;46.166;3.640;2024-01-15T11:47:06;100205.97;;;4.73;100.00
74103;BME280;62853;46.166;3.640;2024-01-15T11:50:03;100196.53;;;4.71;100.00
74103;BME280;62853;46.166;3.640;2024-01-15T11:52:37;100192.28;;;4.68;100.00
74103;BME280;62853;46.166;3.640;2024-01-15T11:55:26;100195.88;;;4.65;100.00
74103;BME280;62853;46.166;3.640;2024-01-15T11:57:54;100198.53;;;4.64;100.00
74103;BME280;62853;46.166;3.640;2024-01-15T12:00:20;100203.88;;;4.61;100.00
74103;BME280;62853;46.166;3.640;2024-01-15T12:02:47;100209.16;;;4.59;100.00
74103;BME280;62853;46.166;3.640;2024-01-15T12:05:16;100200.59;;;4.56;100.00
74103;BME280;62853;46.166;3.640;2024-01-15T12:07:43;100204.91;;;4.57;100.00
74103;BME280;62853;46.166;3.640;2024-01-15T12:10:16;100209.31;;;4.55;100.00
74103;BME280;62853;46.166;3.640;2024-01-15T12:15:17;100209.38;;;4.53;100.00
74103;BME280;62853;46.166;3.640;2024-01-15T12:17:42;100205.94;;;4.53;100.00
74103;BME280;62853;46.166;3.640;2024-01-15T12:20:08;100201.63;;;4.52;100.00
74103;BME280;62853;46.166;3.640;2024-01-15T12:22:34;100203.38;;;4.51;100.00
74103;BME280;62853;46.166;3.640;2024-01-15T12:25:00;100197.28;;;4.52;100.00
74103;BME280;62853;46.166;3.640;2024-01-15T12:27:25;100192.00;;;4.54;100.00
74103;BME280;62853;46.166;3.640;2024-01-15T12:29:53;100194.53;;;4.55;100.00
74103;BME280;62853;46.166;3.640;2024-01-15T12:32:19;100199.72;;;4.55;100.00
74103;BME280;62853;46.166;3.640;2024-01-15T12:34:44;100205.03;;;4.54;100.00
74103;BME280;62853;46.166;3.640;2024-01-15T12:37:09;100204.94;;;4.55;100.00
74103;BME280;62853;46.166;3.640;2024-01-15T12:39:36;100206.72;;;4.55;100.00
74103;BME280;62853;46.166;3.640;2024-01-15T12:42:02;100205.03;;;4.54;100.00
74103;BME280;62853;46.166;3.640;2024-01-15T12:44:28;100204.91;;;4.57;100.00
74103;BME280;62853;46.166;3.640;2024-01-15T12:46:54;100203.28;;;4.54;100.00
74103;BME280;62853;46.166;3.640;2024-01-15T12:49:21;100199.72;;;4.55;100.00
74103;BME280;62853;46.166;3.640;2024-01-15T12:51:56;100205.72;;;4.59;100.00
74103;BME280;62853;46.166;3.640;2024-01-15T12:54:22;100207.25;;;4.63;100.00
74103;BME280;62853;46.166;3.640;2024-01-15T12:56:49;100202.66;;;4.70;100.00
74103;BME280;62853;46.166;3.640;2024-01-15T12:59:14;100215.50;;;4.74;100.00
74103;BME280;62853;46.166;3.640;2024-01-15T13:01:40;100212.84;;;4.76;100.00